Time;durP1;ratioP1;P1;durP2;ratioP2;P2;SDS_P1;SDS_P2;PMS_P1;PMS_P2;Temp;Humidity;BMP_temperature;BMP_pressure;BME280_temperature;BME280_humidity;BME280_pressure;Samples;Min_cycle;Max_cycle;Signal;HPM_P1;HPM_P2
2022/11/19 00:01:07;;;;;;;11.57;6.05;;;;;;;-5.14;69.70;99487.56;4901394;29;20577;-68
2022/11/19 00:03:33;;;;;;;8.23;5.20;;;;;;;-5.15;69.88;99489.28;4886984;29;20089;-68
2022/11/19 00:06:06;;;;;;;12.00;6.63;;;;;;;-5.17;69.67;99477.19;4905918;29;20047;-72
2022/11/19 00:08:31;;;;;;;12.05;6.45;;;;;;;-5.20;70.22;99479.84;4892253;29;20395;-72
2022/11/19 00:11:02;;;;;;;10.07;6.10;;;;;;;-5.23;70.00;99474.66;4913223;29;20688;-70
2022/11/19 00:13:27;;;;;;;12.60;6.47;;;;;;;-5.31;70.39;99473.91;4906145;29;20492;-72
2022/11/19 00:15:51;;;;;;;14.63;6.35;;;;;;;-5.38;70.62;99472.22;4905349;29;20475;-71
2022/11/19 00:18:16;;;;;;;11.13;5.53;;;;;;;-5.42;70.23;99470.56;4904664;29;20040;-72
2022/11/19 00:20:41;;;;;;;10.60;5.72;;;;;;;-5.46;70.56;99479.25;4905805;29;20091;-71
2022/11/19 00:23:05;;;;;;;12.45;6.97;;;;;;;-5.50;70.37;99487.06;4903405;29;20148;-74
2022/11/19 00:25:30;;;;;;;11.25;6.45;;;;;;;-5.54;70.81;99487.13;4906553;29;20028;-74
2022/11/19 00:27:56;;;;;;;13.13;7.32;;;;;;;-5.67;71.04;99503.69;4892895;29;20048;-73
2022/11/19 00:30:20;;;;;;;21.15;9.25;;;;;;;-5.75;70.47;99506.31;4902803;29;20081;-72
2022/11/19 00:32:45;;;;;;;16.27;7.00;;;;;;;-5.81;70.93;99508.97;4898566;29;20078;-71
2022/11/19 00:35:10;;;;;;;16.67;7.75;;;;;;;-5.90;71.13;99514.28;4867588;29;20414;-73
2022/11/19 00:37:35;;;;;;;12.32;6.43;;;;;;;-5.92;71.42;99503.91;4901732;29;20213;-72
2022/11/19 00:40:00;;;;;;;10.57;5.80;;;;;;;-5.91;71.41;99512.56;4909824;29;20114;-73
2022/11/19 00:42:25;;;;;;;12.13;7.50;;;;;;;-5.94;71.29;99517.75;4902683;29;20047;-73
2022/11/19 00:44:49;;;;;;;13.07;6.95;;;;;;;-5.95;71.99;99516.91;4898956;29;20095;-74
2022/11/19 00:47:15;;;;;;;12.45;7.90;;;;;;;-5.98;72.05;99516.91;4898571;29;20048;-72
2022/11/19 00:49:39;;;;;;;10.77;6.53;;;;;;;-5.97;71.64;99523.81;4898667;29;20067;-72
2022/11/19 00:52:04;;;;;;;11.73;6.38;;;;;;;-5.92;71.78;99532.44;4903248;28;20047;-73
2022/11/19 00:54:29;;;;;;;11.70;6.60;;;;;;;-5.95;71.60;99536.78;4900282;29;20437;-69
2022/11/19 00:56:54;;;;;;;10.75;6.28;;;;;;;-5.94;71.94;99541.97;4884250;29;20407;-69
2022/11/19 00:59:18;;;;;;;13.45;6.72;;;;;;;-5.92;71.53;99544.56;4899439;29;20043;-69
2022/11/19 01:01:43;;;;;;;13.77;7.47;;;;;;;-6.02;72.02;99555.88;4885440;29;20055;-73
2022/11/19 01:04:08;;;;;;;11.57;7.20;;;;;;;-6.02;71.20;99550.69;4918575;28;20046;-69
2022/11/19 01:06:32;;;;;;;22.05;7.68;;;;;;;-5.98;71.39;99558.44;4918313;28;20075;-70
2022/11/19 01:08:57;;;;;;;16.13;7.10;;;;;;;-5.95;71.66;99561.00;4878489;29;20047;-70
2022/11/19 01:11:26;;;;;;;17.25;7.07;;;;;;;-5.91;71.94;99559.28;4911643;28;20055;-69
2022/11/19 01:13:50;;;;;;;13.27;7.22;;;;;;;-5.90;71.60;99561.00;4900656;29;20134;-71
2022/11/19 01:16:18;;;;;;;15.23;6.93;;;;;;;-5.86;71.54;99558.31;4900717;29;20150;-65
2022/11/19 01:18:45;;;;;;;14.18;7.45;;;;;;;-5.90;71.50;99566.19;4900222;29;20042;-71
2022/11/19 01:21:11;;;;;;;11.73;6.63;;;;;;;-5.92;71.12;99567.94;4898208;29;20070;-71
2022/11/19 01:23:36;;;;;;;15.40;6.97;;;;;;;-5.90;70.94;99566.19;4903655;29;20196;-72
2022/11/19 01:26:01;;;;;;;12.15;7.03;;;;;;;-5.94;71.13;99560.16;4899750;29;20046;-72
2022/11/19 01:28:26;;;;;;;15.85;8.57;;;;;;;-5.98;70.72;99581.78;4902455;29;20483;-76
2022/11/19 01:30:50;;;;;;;11.60;7.20;;;;;;;-5.98;71.11;99581.78;4906048;28;20058;-71
2022/11/19 01:33:15;;;;;;;14.43;7.28;;;;;;;-6.03;71.01;99577.50;4866167;29;20514;-70
2022/11/19 01:35:40;;;;;;;14.02;6.78;;;;;;;-6.06;70.92;99575.78;4914553;28;20039;-68
2022/11/19 01:38:05;;;;;;;13.38;7.20;;;;;;;-6.08;70.76;99587.03;4895967;29;20104;-66
2022/11/19 01:40:31;;;;;;;12.75;6.93;;;;;;;-6.09;70.88;99587.91;4916044;28;20121;-67
2022/11/19 01:42:55;;;;;;;11.52;5.80;;;;;;;-6.07;71.34;99593.97;4917082;28;20047;-68
2022/11/19 01:45:23;;;;;;;12.57;6.40;;;;;;;-5.99;71.44;99592.22;4899966;28;20054;-67
2022/11/19 01:47:48;;;;;;;11.55;6.60;;;;;;;-5.95;71.90;99594.75;4884166;29;20039;-67
2022/11/19 01:50:13;;;;;;;11.43;6.40;;;;;;;-5.90;71.36;99595.59;4917640;28;20047;-67
2022/11/19 01:52:38;;;;;;;15.88;7.28;;;;;;;-5.87;71.19;99599.88;4900439;29;20035;-66
2022/11/19 01:55:04;;;;;;;17.42;7.43;;;;;;;-5.88;71.19;99611.16;4901306;29;20042;-68
2022/11/19 01:57:28;;;;;;;17.08;7.40;;;;;;;-6.00;70.11;99613.84;4884448;29;20045;-69
2022/11/19 01:59:53;;;;;;;14.77;7.90;;;;;;;-6.10;69.99;99615.63;4897471;29;20130;-67
2022/11/19 02:02:19;;;;;;;11.63;6.70;;;;;;;-6.09;70.33;99632.88;4913877;28;20043;-66
2022/11/19 02:04:44;;;;;;;11.38;6.38;;;;;;;-6.06;70.66;99617.31;4919485;28;20051;-67
2022/11/19 02:07:11;;;;;;;13.07;7.32;;;;;;;-6.02;71.00;99628.53;4888496;29;20042;-66
2022/11/19 02:09:36;;;;;;;15.98;7.22;;;;;;;-6.03;71.01;99621.63;4904432;29;20496;-67
2022/11/19 02:12:07;;;;;;;18.02;7.22;;;;;;;-6.04;71.52;99620.75;4921452;28;20094;-68
2022/11/19 02:14:38;;;;;;;13.27;7.13;;;;;;;-6.03;70.98;99617.31;4921214;28;20099;-68
2022/11/19 02:17:08;;;;;;;12.88;6.80;;;;;;;-6.05;70.77;99618.16;4871019;29;20083;-67
2022/11/19 02:20:11;;;;;;;15.18;7.20;;;;;;;-6.12;70.23;99627.72;4900449;29;20044;-68
2022/11/19 02:23:09;;;;;;;15.50;8.88;;;;;;;-6.20;70.95;99615.66;4834377;29;20423;-69
2022/11/19 02:25:49;;;;;;;13.52;6.53;;;;;;;-6.25;70.75;99610.50;4881200;29;20091;-69
2022/11/19 02:28:16;;;;;;;11.50;6.38;;;;;;;-6.31;70.88;99608.78;4880909;29;20043;-69
2022/11/19 02:30:44;;;;;;;14.18;7.35;;;;;;;-6.33;71.06;99602.75;4881192;29;20052;-67
2022/11/19 02:33:27;;;;;;;11.02;6.53;;;;;;;-6.31;71.00;99608.78;4880684;29;20048;-67
2022/11/19 02:36:18;;;;;;;16.35;8.10;;;;;;;-6.31;71.25;99611.38;4865002;29;20054;-67
2022/11/19 02:39:11;;;;;;;11.30;6.38;;;;;;;-6.32;71.59;99611.41;4865485;29;20039;-67
2022/11/19 02:41:43;;;;;;;15.82;7.13;;;;;;;-6.27;71.57;99626.06;4807977;29;20494;-65
2022/11/19 02:47:17;;;;;;;15.10;6.97;;;;;;;-6.08;71.60;99615.59;4808124;29;20145;-65
2022/11/19 02:49:44;;;;;;;16.02;8.07;;;;;;;-6.02;71.49;99626.81;4792535;29;20037;-66
2022/11/19 02:52:08;;;;;;;12.15;7.05;;;;;;;-5.95;71.68;99625.91;4806825;29;20529;-67
2022/11/19 02:54:33;;;;;;;16.13;7.40;;;;;;;-5.88;71.10;99621.56;4806815;29;20619;-71
2022/11/19 02:56:57;;;;;;;11.82;6.88;;;;;;;-5.79;70.82;99630.97;4791699;29;20672;-64
2022/11/19 03:05:01;;;;;;;;;;;;;;;-5.47;70.98;99628.16;4808154;29;20525;-67
2022/11/19 03:07:28;;;;;;;12.38;6.68;;;;;;;-5.52;70.09;99633.38;4806155;29;19930;-66
2022/11/19 03:09:59;;;;;;;10.95;5.97;;;;;;;-5.50;70.11;99634.22;4806976;29;20050;-68
2022/11/19 03:12:39;;;;;;;12.68;6.88;;;;;;;-5.47;69.76;99641.16;4807644;29;20466;-66
2022/11/19 03:18:03;;;;;;;12.68;6.90;;;;;;;-5.42;69.41;99642.00;4850941;29;20388;-65
2022/11/19 03:20:47;;;;;;;18.48;7.93;;;;;;;-5.39;69.55;99635.00;4906995;29;20522;-69
2022/11/19 03:23:16;;;;;;;13.23;7.05;;;;;;;-5.35;69.87;99643.66;4904896;29;20038;-65
2022/11/19 03:25:47;;;;;;;14.35;6.63;;;;;;;-5.33;69.94;99632.38;4907876;29;20111;-64
2022/11/19 03:28:19;;;;;;;12.82;7.32;;;;;;;-5.27;69.76;99642.72;4906976;29;20134;-65
2022/11/19 03:30:46;;;;;;;17.13;7.40;;;;;;;-5.26;69.13;99662.63;4879424;29;20099;-66
2022/11/19 03:33:33;;;;;;;14.10;7.38;;;;;;;-5.19;68.64;99653.91;4916465;29;20050;-65
2022/11/19 03:36:08;;;;;;;12.98;7.32;;;;;;;-5.17;68.42;99643.50;4920985;28;20039;-65
2022/11/19 03:38:42;;;;;;;12.52;6.50;;;;;;;-5.14;68.08;99649.53;4907157;28;20051;-65
2022/11/19 03:41:10;;;;;;;11.85;6.82;;;;;;;-5.09;68.63;99644.31;4903753;29;20442;-69
2022/11/19 03:43:38;;;;;;;17.25;8.25;;;;;;;-5.01;68.79;99652.03;4897389;29;20039;-65
2022/11/19 03:46:06;;;;;;;17.00;7.80;;;;;;;-4.98;69.00;99665.88;4894807;29;20490;-64
2022/11/19 03:48:31;;;;;;;14.20;7.78;;;;;;;-4.95;68.47;99664.97;4902472;29;20454;-65
2022/11/19 03:51:02;;;;;;;15.35;8.38;;;;;;;-4.92;68.41;99663.22;4919767;28;20054;-64
2022/11/19 03:53:27;;;;;;;17.17;8.02;;;;;;;-4.91;67.78;99667.53;4919611;28;20051;-65
2022/11/19 03:55:56;;;;;;;15.43;9.05;;;;;;;-4.93;68.37;99668.41;4919795;28;20520;-65
2022/11/19 03:58:25;;;;;;;15.85;8.10;;;;;;;-4.97;68.12;99680.59;4902133;28;20043;-65
2022/11/19 04:00:50;;;;;;;17.17;8.57;;;;;;;-4.96;68.50;99674.50;4919123;28;20043;-65
2022/11/19 04:03:14;;;;;;;13.63;8.95;;;;;;;-4.90;68.96;99679.66;4889299;29;20047;-65
2022/11/19 04:05:39;;;;;;;18.20;8.70;;;;;;;-4.84;68.92;99686.53;4918758;28;20057;-64
2022/11/19 04:08:04;;;;;;;15.63;8.48;;;;;;;-4.76;69.33;99683.00;4919384;28;20039;-65
2022/11/19 04:10:29;;;;;;;17.77;8.52;;;;;;;-4.72;69.14;99688.16;4902543;28;20487;-65
2022/11/19 04:12:53;;;;;;;11.07;7.15;;;;;;;-4.68;68.62;99685.53;4920099;28;20117;-64
2022/11/19 04:15:18;;;;;;;14.48;7.80;;;;;;;-4.61;68.64;99692.38;4918929;28;20142;-65
2022/11/19 04:17:43;;;;;;;13.68;8.30;;;;;;;-4.56;68.73;99690.63;4895801;29;20058;-63
2022/11/19 04:20:08;;;;;;;15.48;9.07;;;;;;;-4.52;68.72;99688.84;4912240;28;20043;-64
2022/11/19 04:22:33;;;;;;;15.65;8.93;;;;;;;-4.47;68.77;99684.44;4901759;29;20131;-64
2022/11/19 04:24:58;;;;;;;13.65;8.80;;;;;;;-4.43;68.19;99686.16;4918909;28;20046;-64
2022/11/19 04:27:22;;;;;;;12.18;7.43;;;;;;;-4.41;68.35;99700.00;4918601;28;20039;-66
2022/11/19 04:29:47;;;;;;;15.70;8.05;;;;;;;-4.54;66.91;99701.88;4918733;28;20406;-66
2022/11/19 04:32:11;;;;;;;21.08;9.15;;;;;;;-4.62;66.73;99706.25;4918501;28;20129;-66
2022/11/19 04:34:36;;;;;;;16.00;8.10;;;;;;;-4.63;67.64;99708.91;4901185;28;20039;-65
2022/11/19 04:37:00;;;;;;;18.55;9.25;;;;;;;-4.65;67.16;99708.06;4918524;28;20101;-65
2022/11/19 04:39:25;;;;;;;13.60;6.90;;;;;;;-4.69;67.04;99715.00;4898486;29;20066;-65
2022/11/19 04:41:50;;;;;;;13.98;7.60;;;;;;;-4.71;67.92;99731.50;4895802;29;20047;-66
2022/11/19 04:44:14;;;;;;;15.10;7.68;;;;;;;-4.72;67.76;99722.84;4901425;29;20461;-65
2022/11/19 04:46:39;;;;;;;13.98;7.28;;;;;;;-4.66;68.61;99716.72;4901056;28;20047;-65
2022/11/19 04:49:04;;;;;;;11.02;6.28;;;;;;;-4.60;68.05;99717.53;4918527;28;20039;-67
2022/11/19 04:51:29;;;;;;;11.52;7.18;;;;;;;-4.54;68.00;99712.28;4918371;28;20101;-65
2022/11/19 04:53:54;;;;;;;11.52;6.55;;;;;;;-4.46;68.42;99709.59;4885237;29;20039;-65
2022/11/19 04:56:18;;;;;;;13.73;7.07;;;;;;;-4.43;68.16;99691.34;4885076;29;20066;-66
2022/11/19 04:58:43;;;;;;;12.85;6.90;;;;;;;-4.39;68.20;99713.84;4917940;28;20035;-66
2022/11/19 05:01:07;;;;;;;11.23;6.82;;;;;;;-4.40;68.53;99712.97;4900935;29;20115;-65
2022/11/19 05:03:32;;;;;;;10.70;5.95;;;;;;;-4.38;68.35;99692.16;4918407;28;20051;-66
2022/11/19 05:05:57;;;;;;;11.77;6.95;;;;;;;-4.39;67.97;99672.22;4900871;29;20528;-66
2022/11/19 05:08:22;;;;;;;13.27;7.32;;;;;;;-4.40;68.06;99665.28;4887996;29;20040;-66
2022/11/19 05:10:46;;;;;;;14.02;7.93;;;;;;;-4.42;68.06;99670.53;4917656;28;20051;-65
2022/11/19 05:13:11;;;;;;;19.10;7.47;;;;;;;-4.43;67.92;99696.56;4917938;28;20047;-65
2022/11/19 05:15:36;;;;;;;13.55;7.60;;;;;;;-4.45;67.95;99696.56;4917448;28;20059;-66
2022/11/19 05:18:01;;;;;;;17.38;7.75;;;;;;;-4.43;67.96;99678.34;4892332;29;20048;-66
2022/11/19 05:20:25;;;;;;;14.90;8.35;;;;;;;-4.40;68.96;99684.34;4912876;28;20139;-67
2022/11/19 05:22:50;;;;;;;14.38;8.52;;;;;;;-4.36;68.23;99695.59;4878573;29;20055;-66
2022/11/19 05:25:14;;;;;;;15.85;9.75;;;;;;;-4.40;67.18;99709.50;4910777;28;20090;-66
2022/11/19 05:27:39;;;;;;;15.50;9.30;;;;;;;-4.45;67.88;99708.72;4917913;28;20039;-65
2022/11/19 05:30:04;;;;;;;15.98;9.82;;;;;;;-4.41;68.12;99705.22;4900665;29;20414;-65
2022/11/19 05:32:29;;;;;;;12.95;8.48;;;;;;;-4.34;68.56;99706.88;4899224;28;20051;-66
2022/11/19 05:34:53;;;;;;;18.98;9.52;;;;;;;-4.28;68.76;99690.31;4917648;28;20134;-65
2022/11/19 05:37:18;;;;;;;21.00;8.20;;;;;;;-4.20;68.35;99698.91;4916429;28;20086;-64
2022/11/19 05:39:43;;;;;;;15.18;8.70;;;;;;;-4.14;68.08;99689.28;4916926;28;20051;-65
2022/11/19 05:42:07;;;;;;;16.73;10.07;;;;;;;-4.07;68.63;99700.50;4917910;28;20474;-65
2022/11/19 05:44:32;;;;;;;17.83;8.23;;;;;;;-4.00;68.29;99701.28;4900289;29;20535;-65
2022/11/19 05:46:58;;;;;;;15.25;8.52;;;;;;;-3.97;68.29;99696.03;4917849;28;20130;-65
2022/11/19 05:49:23;;;;;;;18.55;9.02;;;;;;;-3.93;67.95;99679.47;4918098;28;21011;-65
2022/11/19 05:51:47;;;;;;;15.57;8.48;;;;;;;-3.91;68.41;99678.59;4917245;28;20493;-64
2022/11/19 05:54:12;;;;;;;21.38;8.90;;;;;;;-3.88;67.82;99680.31;4917778;28;20042;-66
2022/11/19 05:56:37;;;;;;;16.45;8.88;;;;;;;-3.88;67.75;99675.94;4917052;28;20138;-66
2022/11/19 05:59:02;;;;;;;15.50;7.20;;;;;;;-3.87;67.92;99679.41;4917025;28;20503;-66
2022/11/19 06:01:28;;;;;;;12.90;6.70;;;;;;;-3.85;67.89;99690.69;4888370;29;20586;-66
2022/11/19 06:03:53;;;;;;;12.05;7.53;;;;;;;-3.83;68.17;99696.72;4916367;28;20047;-66
2022/11/19 06:06:18;;;;;;;11.73;6.25;;;;;;;-3.81;68.24;99692.34;4884597;29;20053;-66
2022/11/19 06:08:42;;;;;;;7.82;5.03;;;;;;;-3.74;68.32;99691.41;4886661;28;20039;-66
2022/11/19 06:11:46;;;;;;;11.43;6.68;;;;;;;-3.66;67.53;99686.94;4883991;29;20054;-67
2022/11/19 06:13:52;;;;;;;7.38;4.72;;;;;;;-3.60;67.77;99676.44;4917211;28;20042;-67
2022/11/19 06:16:16;;;;;;;11.68;4.30;;;;;;;-3.45;67.32;99691.00;4891902;29;20055;-66
2022/11/19 06:18:41;;;;;;;8.02;5.10;;;;;;;-3.56;67.32;99698.09;4884032;28;20039;-67
2022/11/19 06:21:05;;;;;;;8.18;4.75;;;;;;;-3.61;67.16;99700.75;4884285;29;20105;-67
2022/11/19 06:23:30;;;;;;;7.00;4.63;;;;;;;-3.59;67.65;99709.41;4881098;29;20134;-67
2022/11/19 06:25:55;;;;;;;3.60;2.75;;;;;;;-3.19;66.27;99714.94;4915348;28;20043;-67
2022/11/19 06:28:20;;;;;;;3.72;3.05;;;;;;;-3.20;65.81;99715.81;4917096;28;20031;-65
2022/11/19 06:30:44;;;;;;;7.15;4.50;;;;;;;-3.30;65.52;99722.06;4886602;28;20055;-66
2022/11/19 06:33:09;;;;;;;5.93;2.92;;;;;;;-3.24;65.45;99726.31;4917227;28;20043;-67
2022/11/19 06:35:34;;;;;;;7.32;3.83;;;;;;;-3.42;66.24;99723.09;4896520;29;20907;-66
2022/11/19 06:37:58;;;;;;;8.60;4.32;;;;;;;-3.48;66.26;99730.13;4897616;28;20047;-66
2022/11/19 06:40:23;;;;;;;7.05;4.15;;;;;;;-3.50;66.69;99740.56;4883915;29;20051;-66
2022/11/19 06:42:48;;;;;;;4.40;3.17;;;;;;;-3.49;66.23;99733.59;4899836;29;20054;-66
2022/11/19 06:45:13;;;;;;;6.78;4.60;;;;;;;-3.49;66.59;99744.03;4880794;29;20039;-65
2022/11/19 06:47:40;;;;;;;5.80;3.63;;;;;;;-3.56;67.14;99731.97;4908203;28;20047;-66
2022/11/19 06:50:07;;;;;;;7.47;4.63;;;;;;;-3.35;66.46;99727.31;4900457;28;20140;-64
2022/11/19 06:52:31;;;;;;;6.57;4.45;;;;;;;-3.43;66.86;99737.00;4903143;29;20094;-66
2022/11/19 06:54:56;;;;;;;3.75;2.58;;;;;;;-3.20;66.24;99747.13;4902802;28;20055;-66
2022/11/19 06:57:21;;;;;;;8.02;4.10;;;;;;;-3.18;65.99;99741.88;4920064;28;20070;-65
2022/11/19 06:59:46;;;;;;;2.90;2.70;;;;;;;-3.19;66.23;99756.66;4887162;29;20054;-70
2022/11/19 07:02:11;;;;;;;8.55;5.15;;;;;;;-3.38;65.63;99761.25;4882807;29;20032;-68
2022/11/19 07:04:36;;;;;;;6.85;4.15;;;;;;;-3.55;66.37;99778.84;4910581;28;20510;-67
2022/11/19 07:07:01;;;;;;;7.47;4.63;;;;;;;-3.44;66.98;99784.78;4889736;28;20499;-68
2022/11/19 07:09:26;;;;;;;11.32;5.90;;;;;;;-3.50;67.09;99791.84;4902996;29;20039;-68
2022/11/19 07:11:51;;;;;;;9.60;5.95;;;;;;;-3.55;67.61;99794.50;4920237;28;20085;-68
2022/11/19 07:14:15;;;;;;;8.05;4.93;;;;;;;-3.42;67.44;99800.41;4920233;28;20089;-69
2022/11/19 07:16:40;;;;;;;11.13;5.68;;;;;;;-3.56;67.54;99795.38;4889001;29;20530;-69
2022/11/19 07:19:07;;;;;;;8.80;5.40;;;;;;;-3.51;67.71;99800.53;4883878;29;20118;-64
2022/11/19 07:21:32;;;;;;;13.00;5.85;;;;;;;-3.48;68.41;99809.16;4901026;29;20128;-65
2022/11/19 07:23:58;;;;;;;8.13;5.32;;;;;;;-3.43;68.21;99812.59;4882454;29;20060;-64
2022/11/19 07:26:24;;;;;;;8.07;4.45;;;;;;;-3.27;68.45;99815.84;4867981;29;20035;-65
2022/11/19 07:28:49;;;;;;;9.23;5.68;;;;;;;-3.28;67.81;99813.28;4870730;29;20076;-67
2022/11/19 07:31:13;;;;;;;6.05;3.05;;;;;;;-2.96;66.87;99817.19;4900821;29;20066;-69
2022/11/19 07:33:39;;;;;;;9.32;6.60;;;;;;;-2.99;66.39;99826.78;4901126;29;20478;-67
2022/11/19 07:36:07;;;;;;;8.98;4.68;;;;;;;-3.18;66.81;99827.91;4884313;29;20043;-68
2022/11/19 07:38:32;;;;;;;7.53;4.60;;;;;;;-3.30;67.00;99836.75;4900897;29;20035;-68
2022/11/19 07:40:56;;;;;;;9.00;4.90;;;;;;;-3.25;67.00;99834.06;4872237;29;20044;-67
2022/11/19 07:43:22;;;;;;;5.20;3.53;;;;;;;-3.27;67.33;99835.88;4883879;29;20050;-66
2022/11/19 07:45:47;;;;;;;9.80;4.93;;;;;;;-3.31;67.67;99832.44;4901178;29;20047;-67
2022/11/19 07:48:13;;;;;;;6.50;4.55;;;;;;;-3.34;67.67;99841.13;4904814;29;20074;-66
2022/11/19 07:50:39;;;;;;;7.60;4.80;;;;;;;-3.28;68.00;99832.41;4889261;29;20039;-68
2022/11/19 07:53:04;;;;;;;6.82;4.75;;;;;;;-3.24;67.77;99831.44;4871650;29;20090;-68
2022/11/19 07:55:28;;;;;;;6.68;4.90;;;;;;;-3.23;68.05;99840.13;4888674;29;20032;-66
2022/11/19 07:57:53;;;;;;;11.15;6.70;;;;;;;-3.16;67.59;99831.38;4870097;29;20082;-68
2022/11/19 08:00:18;;;;;;;8.00;4.75;;;;;;;-3.16;67.87;99828.75;4903388;29;20058;-68
2022/11/19 08:02:43;;;;;;;7.20;4.47;;;;;;;-2.96;67.77;99826.75;4873500;29;20055;-67
2022/11/19 08:05:08;;;;;;;10.85;5.60;;;;;;;-3.05;67.69;99821.66;4901789;29;20040;-67
2022/11/19 08:07:33;;;;;;;5.32;3.80;;;;;;;-3.12;67.55;99826.06;4901498;29;20102;-65
2022/11/19 08:09:57;;;;;;;5.93;3.80;;;;;;;-3.04;67.57;99823.34;4855761;29;20134;-64
2022/11/19 08:12:22;;;;;;;9.30;5.13;;;;;;;-3.08;67.42;99816.47;4898973;29;20099;-66
2022/11/19 08:14:46;;;;;;;10.55;5.13;;;;;;;-3.15;67.83;99818.28;4873430;29;20411;-67
2022/11/19 08:19:55;;;;;;;6.57;4.43;;;;;;;-3.09;68.01;99822.56;4907818;29;20067;-65
2022/11/19 08:22:21;;;;;;;11.02;6.00;;;;;;;-3.10;67.98;99810.41;4924649;28;20110;-66
2022/11/19 08:24:46;;;;;;;6.10;4.15;;;;;;;-3.07;67.84;99802.56;4924486;28;20067;-66
2022/11/19 08:27:11;;;;;;;6.90;4.85;;;;;;;-2.95;67.85;99805.00;4925012;28;20054;-66
2022/11/19 08:29:36;;;;;;;8.85;5.90;;;;;;;-3.05;67.80;99800.81;4908051;29;20042;-65
2022/11/19 08:32:00;;;;;;;8.90;5.63;;;;;;;-3.13;67.93;99794.81;4895033;29;20098;-67
2022/11/19 08:34:25;;;;;;;11.18;3.42;;;;;;;-2.98;68.39;99802.44;4919879;28;20098;-66
2022/11/19 08:36:50;;;;;;;7.63;5.53;;;;;;;-2.85;67.19;99793.53;4920975;28;20051;-65
2022/11/19 08:39:14;;;;;;;10.23;5.60;;;;;;;-3.01;67.89;99786.81;4918850;28;20058;-66
2022/11/19 08:44:22;;;;;;;9.25;4.50;;;;;;;-3.05;68.08;99795.59;4911929;28;20055;-66
2022/11/19 08:46:47;;;;;;;7.38;4.50;;;;;;;-3.02;67.82;99792.91;4886042;29;20157;-67
2022/11/19 08:49:12;;;;;;;9.85;5.57;;;;;;;-2.98;68.11;99802.44;4913269;28;20050;-69
2022/11/19 08:51:36;;;;;;;8.27;5.38;;;;;;;-3.02;67.71;99800.72;4906961;28;20406;-68
2022/11/19 08:54:02;;;;;;;9.15;1.98;;;;;;;-2.87;67.73;99813.56;4922797;28;20046;-68
2022/11/19 08:56:26;;;;;;;9.98;4.85;;;;;;;-2.93;67.57;99796.25;4922580;28;20521;-68
2022/11/19 08:58:53;;;;;;;14.30;6.15;;;;;;;-2.89;67.70;99804.03;4905083;29;20039;-69
2022/11/19 09:01:18;;;;;;;4.47;3.13;;;;;;;-2.90;68.03;99805.78;4906097;29;20046;-67
2022/11/19 09:03:43;;;;;;;3.85;2.75;;;;;;;-2.84;67.51;99810.91;4922822;28;20047;-68
2022/11/19 09:06:08;;;;;;;8.20;5.10;;;;;;;-2.96;68.08;99803.28;4922094;28;20105;-69
2022/11/19 09:08:33;;;;;;;6.30;3.35;;;;;;;-2.80;67.28;99793.44;4923735;28;20050;-67
2022/11/19 09:10:58;;;;;;;8.48;5.53;;;;;;;-2.97;67.86;99794.59;4923782;28;20051;-68
2022/11/19 09:13:23;;;;;;;11.60;5.30;;;;;;;-2.99;67.85;99806.78;4899269;29;20115;-68
2022/11/19 09:15:49;;;;;;;8.13;5.30;;;;;;;-2.94;67.71;99814.53;4879281;29;20051;-68
2022/11/19 09:18:13;;;;;;;9.82;5.00;;;;;;;-2.89;68.14;99827.50;4886093;29;20043;-68
2022/11/19 09:20:38;;;;;;;6.40;3.28;;;;;;;-2.92;68.03;99829.25;4901444;29;20190;-67
2022/11/19 09:23:03;;;;;;;8.88;4.90;;;;;;;-2.96;67.87;99837.19;4876843;29;20103;-70
2022/11/19 09:25:28;;;;;;;8.98;5.55;;;;;;;-3.02;68.23;99840.72;4870329;29;20039;-69
2022/11/19 09:27:52;;;;;;;10.43;3.42;;;;;;;-2.83;68.27;99846.56;4885093;29;20035;-70
2022/11/19 09:30:18;;;;;;;6.05;3.95;;;;;;;-2.70;67.74;99835.03;4883249;29;20174;-65
2022/11/19 09:32:43;;;;;;;8.10;4.60;;;;;;;-2.77;67.87;99820.38;4865997;29;20075;-68
2022/11/19 09:35:07;;;;;;;7.18;4.07;;;;;;;-2.79;68.20;99829.97;4892667;29;20130;-66
2022/11/19 09:37:33;;;;;;;12.30;6.95;;;;;;;-2.90;68.25;99841.44;4901317;29;20047;-70
2022/11/19 09:39:59;;;;;;;7.50;4.30;;;;;;;-2.80;68.41;99829.97;4900260;29;20059;-67
2022/11/19 09:42:56;;;;;;;6.95;4.72;;;;;;;-2.85;68.62;99832.66;4866351;29;20063;-67
2022/11/19 09:45:42;;;;;;;10.98;6.80;;;;;;;-2.99;68.89;99847.66;4884610;29;20040;-68
2022/11/19 09:48:21;;;;;;;9.23;5.43;;;;;;;-3.03;68.88;99841.59;4868299;29;20044;-69
2022/11/19 09:50:53;;;;;;;10.93;5.50;;;;;;;-3.03;69.72;99843.34;4865971;29;20102;-68
2022/11/19 09:53:20;;;;;;;10.30;6.28;;;;;;;-2.95;69.35;99831.94;4868321;29;20495;-68
2022/11/19 09:55:49;;;;;;;9.13;6.03;;;;;;;-2.67;68.67;99835.00;4898879;29;20071;-68
2022/11/19 09:58:37;;;;;;;9.25;5.38;;;;;;;-2.65;68.34;99832.38;4865758;29;20039;-68
2022/11/19 10:01:01;;;;;;;10.38;5.90;;;;;;;-2.94;68.24;99831.06;4873130;29;20056;-68
2022/11/19 10:03:27;;;;;;;5.07;3.70;;;;;;;-2.80;68.47;99843.88;4897181;29;20052;-69
2022/11/19 10:06:14;;;;;;;3.72;2.15;;;;;;;-2.79;68.88;99840.41;4881558;29;20130;-69
2022/11/19 10:08:42;;;;;;;7.18;5.03;;;;;;;-2.87;68.68;99839.66;4868031;29;20463;-69
2022/11/19 10:11:27;;;;;;;9.55;5.05;;;;;;;-2.98;68.99;99838.94;4898820;29;20111;-68
2022/11/19 10:14:49;;;;;;;7.43;3.92;;;;;;;-2.94;68.89;99825.84;4881474;29;20138;-68
2022/11/19 10:17:14;;;;;;;8.07;5.25;;;;;;;-3.09;69.36;99822.56;4895489;29;20454;-69
2022/11/19 10:20:12;;;;;;;9.57;6.10;;;;;;;-2.96;69.38;99811.09;4880116;29;20036;-68
2022/11/19 10:22:45;;;;;;;8.15;5.00;;;;;;;-2.94;69.11;99814.53;4880685;29;20047;-70
2022/11/19 10:25:10;;;;;;;4.95;4.05;;;;;;;-2.96;69.18;99804.13;4897839;29;20136;-71
2022/11/19 10:27:55;;;;;;;9.68;6.40;;;;;;;-3.02;69.48;99798.13;4884209;29;20529;-69
2022/11/19 10:30:23;;;;;;;9.52;3.58;;;;;;;-3.02;70.00;99796.38;4900139;29;20044;-68
2022/11/19 10:32:54;;;;;;;8.32;5.65;;;;;;;-3.11;69.71;99798.25;4885325;29;20481;-67
2022/11/19 10:35:29;;;;;;;9.77;6.07;;;;;;;-3.12;69.78;99791.31;4866689;29;20150;-68
2022/11/19 10:38:00;;;;;;;7.97;5.00;;;;;;;-3.12;69.83;99788.72;4895045;29;20040;-67
2022/11/19 10:40:58;;;;;;;8.18;5.80;;;;;;;-2.99;70.51;99779.84;4884423;29;20111;-67
2022/11/19 10:43:38;;;;;;;8.55;5.35;;;;;;;-2.77;69.99;99788.19;4900081;29;20115;-68
2022/11/19 10:46:08;;;;;;;7.47;4.72;;;;;;;-2.85;70.01;99770.06;4881443;29;20075;-67
2022/11/19 10:48:40;;;;;;;9.20;5.82;;;;;;;-3.00;69.99;99775.50;4917150;28;20051;-68
2022/11/19 10:51:11;;;;;;;9.38;6.00;;;;;;;-3.00;69.98;99762.47;4921760;28;20046;-68
2022/11/19 10:53:39;;;;;;;10.70;6.28;;;;;;;-2.97;70.14;99758.06;4900800;29;20407;-68
2022/11/19 10:56:35;;;;;;;11.40;7.88;;;;;;;-3.05;70.62;99764.28;4878780;29;20047;-69
2022/11/19 10:59:24;;;;;;;8.65;5.70;;;;;;;-3.14;70.82;99764.41;4903936;29;20051;-69
2022/11/19 11:02:01;;;;;;;9.07;6.88;;;;;;;-2.82;70.00;99756.94;4919242;28;20468;-69
2022/11/19 11:04:28;;;;;;;11.00;6.30;;;;;;;-3.07;70.26;99753.00;4880133;29;20053;-67
2022/11/19 11:06:56;;;;;;;9.40;5.63;;;;;;;-3.07;70.97;99755.63;4916236;28;20050;-68
2022/11/19 11:09:39;;;;;;;8.40;4.85;;;;;;;-2.90;70.53;99742.31;4890963;29;20027;-68
2022/11/19 11:15:16;;;;;;;12.95;7.63;;;;;;;-3.04;70.70;99742.50;4887775;28;20050;-67
2022/11/19 11:17:41;;;;;;;9.80;6.22;;;;;;;-2.81;70.82;99763.88;4898744;29;20047;-67
2022/11/19 11:20:26;;;;;;;9.68;5.05;;;;;;;-2.75;70.02;99748.16;4897252;29;20527;-67
2022/11/19 11:23:08;;;;;;;4.50;3.00;;;;;;;-2.71;70.01;99756.81;4884762;29;20058;-66
2022/11/19 11:25:32;;;;;;;10.20;6.03;;;;;;;-2.89;70.13;99738.81;4917769;28;20054;-65
2022/11/19 11:28:03;;;;;;;9.85;6.03;;;;;;;-3.00;70.50;99746.81;4897926;29;20043;-67
2022/11/19 11:30:29;;;;;;;9.15;5.60;;;;;;;-2.98;70.77;99745.03;4913801;28;20505;-67
2022/11/19 11:32:54;;;;;;;8.68;5.70;;;;;;;-2.93;70.50;99749.28;4902790;29;20573;-65
2022/11/19 11:35:34;;;;;;;8.40;5.43;;;;;;;-2.99;70.86;99730.28;4886551;29;20454;-66
2022/11/19 11:38:00;;;;;;;12.02;6.05;;;;;;;-3.15;71.18;99736.59;4887079;29;20959;-68
2022/11/19 11:40:26;;;;;;;11.25;7.75;;;;;;;-2.98;70.74;99732.00;4918476;29;20038;-71
2022/11/19 11:42:52;;;;;;;12.00;7.25;;;;;;;-3.04;71.36;99725.13;4918793;29;20560;-65
2022/11/19 11:45:31;;;;;;;10.13;5.78;;;;;;;-3.10;71.74;99726.97;4903387;29;20050;-67
2022/11/19 11:47:58;;;;;;;9.80;5.95;;;;;;;-3.16;71.83;99758.38;4903077;29;20490;-68
2022/11/19 11:50:27;;;;;;;12.18;6.75;;;;;;;-2.98;71.51;99727.66;4919715;28;20043;-66
2022/11/19 11:52:53;;;;;;;9.25;6.00;;;;;;;-2.98;71.00;99726.78;4920034;28;20502;-69